Time;durP1;ratioP1;P1;durP2;ratioP2;P2;SDS_P1;SDS_P2;PMS_P1;PMS_P2;Temp;Humidity;BMP_temperature;BMP_pressure;BME280_temperature;BME280_humidity;BME280_pressure;Samples;Min_cycle;Max_cycle;Signal;HPM_P1;HPM_P2
2023/05/15 00:00:50;;;;;;;18.30;7.50;;;;;;;13.29;55.42;98693.73;105125;1264;107772;-81
2023/05/15 00:03:28;;;;;;;17.60;8.00;;;;;;;13.27;55.40;98688.59;105138;1266;96598;-80
2023/05/15 00:05:56;;;;;;;17.50;8.30;;;;;;;13.26;55.52;98687.39;105077;1266;96556;-81
2023/05/15 00:08:25;;;;;;;17.40;7.70;;;;;;;13.25;55.46;98692.99;105056;1263;110751;-81
2023/05/15 00:10:53;;;;;;;19.80;8.00;;;;;;;13.25;55.67;98696.17;105142;1256;96448;-79
2023/05/15 00:13:29;;;;;;;19.30;7.60;;;;;;;13.26;55.73;98692.74;105101;1258;107802;-80
2023/05/15 00:15:57;;;;;;;16.60;6.80;;;;;;;13.26;55.84;98689.54;105104;1256;97912;-80
2023/05/15 00:18:25;;;;;;;16.00;6.90;;;;;;;13.24;55.93;98683.77;105065;1264;96504;-81
2023/05/15 00:20:52;;;;;;;15.60;7.30;;;;;;;13.24;55.76;98679.90;105092;1263;110394;-81
2023/05/15 00:23:21;;;;;;;19.70;7.20;;;;;;;13.23;55.93;98669.30;105106;1264;96671;-80
2023/05/15 00:25:49;;;;;;;16.30;6.90;;;;;;;13.21;55.98;98660.05;105094;1264;107726;-80
2023/05/15 00:28:17;;;;;;;19.00;6.70;;;;;;;13.20;56.08;98662.48;105174;1254;96636;-80
2023/05/15 00:30:45;;;;;;;16.50;6.50;;;;;;;13.19;56.11;98665.42;105115;1257;96755;-82
2023/05/15 00:33:13;;;;;;;16.90;6.70;;;;;;;13.18;56.10;98665.48;105166;1265;110894;-81
2023/05/15 00:35:40;;;;;;;15.60;5.80;;;;;;;13.18;56.17;98661.89;105255;1256;97425;-80
2023/05/15 00:38:09;;;;;;;15.00;6.30;;;;;;;13.17;56.38;98657.06;105313;1265;107090;-81
2023/05/15 00:40:39;;;;;;;15.90;6.40;;;;;;;13.15;56.36;98657.45;105262;1258;97534;-82
2023/05/15 00:43:08;;;;;;;14.80;6.30;;;;;;;13.14;56.56;98654.16;105316;1258;96612;-80
2023/05/15 00:45:39;;;;;;;16.60;6.70;;;;;;;13.13;56.50;98644.63;105234;1265;109701;-81
2023/05/15 00:48:09;;;;;;;15.10;6.10;;;;;;;13.13;56.54;98645.30;105346;1258;96693;-80
2023/05/15 00:50:40;;;;;;;15.50;6.60;;;;;;;13.13;56.63;98638.39;105292;1251;107706;-82
2023/05/15 00:53:17;;;;;;;17.50;7.10;;;;;;;13.11;56.66;98637.79;105299;1261;97537;-82
2023/05/15 00:55:46;;;;;;;19.50;7.10;;;;;;;13.10;56.66;98639.13;105276;1263;97511;-79
2023/05/15 00:58:15;;;;;;;16.80;7.20;;;;;;;13.09;56.71;98637.45;105097;1257;109884;-78
2023/05/15 01:00:45;;;;;;;16.80;6.60;;;;;;;13.09;56.75;98635.85;105149;1257;96581;-80
2023/05/15 01:03:13;;;;;;;17.90;6.90;;;;;;;13.08;56.81;98633.41;105223;1257;107870;-79
2023/05/15 01:05:41;;;;;;;16.20;7.20;;;;;;;13.06;56.94;98625.59;105191;1258;96586;-81
2023/05/15 01:08:20;;;;;;;16.90;7.30;;;;;;;13.05;56.99;98625.70;105304;1267;96565;-79
2023/05/15 01:10:50;;;;;;;18.90;7.50;;;;;;;13.04;57.14;98615.62;105187;1256;110069;-84
2023/05/15 01:13:22;;;;;;;19.10;7.70;;;;;;;13.03;57.23;98618.20;105252;1254;96618;-80
2023/05/15 01:15:53;;;;;;;18.40;7.70;;;;;;;13.03;57.29;98624.30;105171;1258;107237;-80
2023/05/15 01:18:22;;;;;;;15.90;7.30;;;;;;;13.03;57.42;98633.16;105260;1264;96584;-79
2023/05/15 01:21:38;;;;;;;17.90;7.80;;;;;;;13.04;57.57;98630.62;105361;1263;96907;-80
2023/05/15 01:24:40;;;;;;;18.30;7.40;;;;;;;13.02;57.60;98637.88;105332;1251;110834;-81
2023/05/15 01:27:30;;;;;;;16.30;7.30;;;;;;;13.03;57.63;98642.46;105303;1258;96699;-80
2023/05/15 01:30:26;;;;;;;17.10;8.00;;;;;;;13.04;57.82;98648.25;105082;1256;107342;-80
2023/05/15 01:33:20;;;;;;;16.80;7.40;;;;;;;13.05;57.84;98654.71;105153;1254;96670;-80
2023/05/15 01:36:06;;;;;;;17.00;7.30;;;;;;;13.06;57.95;98653.05;105078;1266;97430;-80
2023/05/15 01:38:40;;;;;;;17.50;7.50;;;;;;;13.07;58.10;98651.53;105074;1260;109369;-80
2023/05/15 01:41:20;;;;;;;19.70;7.70;;;;;;;13.06;58.10;98646.23;105324;1254;97562;-80
2023/05/15 01:43:56;;;;;;;16.40;7.50;;;;;;;13.07;58.17;98640.30;105308;1254;108908;-81
2023/05/15 01:46:28;;;;;;;16.70;7.60;;;;;;;13.08;58.34;98642.17;105202;1258;96585;-79
2023/05/15 01:49:01;;;;;;;16.50;7.60;;;;;;;13.08;58.34;98638.83;105098;1258;96599;-79
2023/05/15 01:51:32;;;;;;;16.00;7.40;;;;;;;13.07;58.38;98628.20;105145;1256;110138;-81
2023/05/15 01:54:02;;;;;;;17.20;6.80;;;;;;;13.07;58.42;98624.44;105189;1257;96664;-81
2023/05/15 01:56:31;;;;;;;16.00;6.50;;;;;;;13.08;58.49;98615.31;105055;1257;106841;-81
2023/05/15 01:59:00;;;;;;;14.50;6.90;;;;;;;13.09;58.39;98605.41;105097;1254;96649;-80
2023/05/15 02:01:31;;;;;;;16.40;7.00;;;;;;;13.09;58.58;98602.18;105137;1267;96656;-80
2023/05/15 02:04:00;;;;;;;15.70;7.60;;;;;;;13.09;58.70;98597.18;105131;1257;109994;-79
2023/05/15 02:06:31;;;;;;;14.10;7.00;;;;;;;13.09;58.71;98595.46;105120;1256;96671;-81
2023/05/15 02:09:01;;;;;;;14.50;6.30;;;;;;;13.08;58.85;98593.35;105122;1257;107120;-84
2023/05/15 02:11:29;;;;;;;17.50;7.70;;;;;;;13.07;58.71;98590.46;105073;1264;96589;-80
2023/05/15 02:14:00;;;;;;;15.40;6.30;;;;;;;13.06;59.07;98585.90;105132;1256;96943;-80
2023/05/15 02:16:28;;;;;;;16.20;7.00;;;;;;;13.04;59.11;98580.98;105051;1257;109907;-80
2023/05/15 02:18:56;;;;;;;13.70;6.60;;;;;;;13.01;59.08;98572.73;105025;1259;96687;-83
2023/05/15 02:21:25;;;;;;;15.80;7.50;;;;;;;12.99;58.95;98568.04;105100;1257;107643;-79
2023/05/15 02:23:53;;;;;;;15.50;6.60;;;;;;;12.98;59.23;98565.65;105152;1275;96660;-80
2023/05/15 02:26:39;;;;;;;15.70;6.70;;;;;;;12.96;59.31;98557.33;105079;1256;97814;-81
2023/05/15 02:29:29;;;;;;;13.90;6.60;;;;;;;12.92;59.58;98556.58;105061;1254;110363;-80
2023/05/15 02:32:06;;;;;;;15.50;6.80;;;;;;;12.89;59.47;98556.09;105071;1258;97804;-80
2023/05/15 02:34:56;;;;;;;17.30;7.20;;;;;;;12.89;59.66;98554.02;105081;1258;108877;-81
2023/05/15 02:37:29;;;;;;;14.90;7.00;;;;;;;12.88;59.86;98551.27;105099;1254;97519;-79
2023/05/15 02:40:00;;;;;;;15.80;6.90;;;;;;;12.87;59.83;98547.60;105214;1253;96577;-79
2023/05/15 02:42:32;;;;;;;16.50;6.80;;;;;;;12.87;59.90;98544.95;105092;1267;111115;-81
2023/05/15 02:45:02;;;;;;;14.70;7.20;;;;;;;12.86;60.05;98537.88;105180;1257;96609;-79
2023/05/15 02:47:32;;;;;;;17.40;7.30;;;;;;;12.86;60.08;98534.52;105110;1256;107528;-79
2023/05/15 02:50:01;;;;;;;16.70;6.80;;;;;;;12.84;60.13;98531.67;105095;1256;96590;-82
2023/05/15 02:52:31;;;;;;;15.00;6.70;;;;;;;12.83;60.24;98526.61;105372;1264;97923;-81
2023/05/15 02:55:03;;;;;;;16.90;7.50;;;;;;;12.84;60.32;98528.83;105105;1255;111096;-80
2023/05/15 02:57:31;;;;;;;12.20;6.70;;;;;;;12.84;60.30;98530.59;105071;1264;97504;-78
2023/05/15 03:00:00;;;;;;;14.50;7.00;;;;;;;12.83;60.35;98533.89;105081;1256;107866;-81
2023/05/15 03:02:28;;;;;;;23.40;7.70;;;;;;;12.84;60.32;98538.83;105015;1255;96587;-80
2023/05/15 03:04:56;;;;;;;14.20;7.00;;;;;;;12.84;60.40;98538.80;105103;1257;97541;-79
2023/05/15 03:07:24;;;;;;;14.20;6.70;;;;;;;12.85;60.52;98531.64;105151;1253;109717;-79
2023/05/15 03:09:52;;;;;;;12.90;5.60;;;;;;;12.85;60.45;98530.52;105078;1266;97508;-79
2023/05/15 03:12:20;;;;;;;16.20;6.10;;;;;;;12.85;60.51;98525.77;105143;1263;106786;-79
2023/05/15 03:14:48;;;;;;;12.90;6.10;;;;;;;12.86;60.47;98523.48;105101;1259;96693;-82
2023/05/15 03:17:15;;;;;;;13.50;6.00;;;;;;;12.87;60.47;98523.01;105188;1258;96710;-79
2023/05/15 03:19:53;;;;;;;13.20;6.10;;;;;;;12.88;60.53;98521.69;105076;1257;109159;-80
2023/05/15 03:22:21;;;;;;;14.80;6.20;;;;;;;12.89;60.65;98520.02;105111;1260;96952;-79
2023/05/15 03:24:49;;;;;;;15.20;5.90;;;;;;;12.89;60.76;98517.14;105211;1257;108653;-82
2023/05/15 03:27:16;;;;;;;13.10;5.90;;;;;;;12.90;60.77;98513.13;105219;1257;96618;-79
2023/05/15 03:29:44;;;;;;;14.20;5.70;;;;;;;12.91;60.86;98512.87;105179;1266;97928;-80
2023/05/15 03:32:12;;;;;;;13.00;6.00;;;;;;;12.91;60.94;98512.90;105130;1257;111120;-80
2023/05/15 03:34:40;;;;;;;14.00;6.20;;;;;;;12.91;60.99;98510.92;105163;1257;96587;-81
2023/05/15 03:37:08;;;;;;;11.10;5.70;;;;;;;12.90;61.06;98511.71;105061;1257;108797;-80
2023/05/15 03:39:36;;;;;;;13.60;5.90;;;;;;;12.90;61.13;98512.79;105169;1260;96596;-80
2023/05/15 03:42:04;;;;;;;14.50;6.10;;;;;;;12.89;61.21;98505.39;105091;1254;96514;-82
2023/05/15 03:44:32;;;;;;;17.00;6.40;;;;;;;12.89;61.28;98506.66;105128;1258;111832;-81
2023/05/15 03:47:00;;;;;;;13.80;6.40;;;;;;;12.88;61.34;98504.10;105050;1267;96590;-81
2023/05/15 03:49:28;;;;;;;15.40;6.50;;;;;;;12.89;61.37;98499.59;105096;1255;108479;-79
2023/05/15 03:51:55;;;;;;;13.10;6.10;;;;;;;12.89;61.38;98500.25;105124;1267;96681;-79
2023/05/15 03:54:23;;;;;;;13.00;5.70;;;;;;;12.87;61.52;98496.32;105804;1255;96643;-79
2023/05/15 03:56:51;;;;;;;14.20;6.40;;;;;;;12.86;61.59;98502.33;105234;1257;110179;-79
2023/05/15 03:59:19;;;;;;;14.90;6.90;;;;;;;12.85;61.61;98502.91;107457;1253;95141;-80
2023/05/15 04:01:47;;;;;;;15.00;6.90;;;;;;;12.86;61.54;98510.90;106972;1253;108845;-79
2023/05/15 04:04:32;;;;;;;18.10;6.80;;;;;;;12.87;61.76;98518.09;105273;1256;97434;-79
2023/05/15 04:07:01;;;;;;;17.00;7.60;;;;;;;12.87;61.73;98522.48;105308;1257;96617;-80
2023/05/15 04:09:28;;;;;;;14.80;6.40;;;;;;;12.89;61.77;98520.22;105262;1257;111116;-79
2023/05/15 04:11:56;;;;;;;14.60;6.70;;;;;;;12.87;61.97;98523.77;105379;1256;97404;-79
2023/05/15 04:14:24;;;;;;;14.20;7.20;;;;;;;12.85;62.02;98529.27;105300;1263;107848;-79
2023/05/15 04:16:52;;;;;;;14.90;6.70;;;;;;;12.84;62.08;98526.02;105178;1265;97546;-79
2023/05/15 04:19:20;;;;;;;14.90;6.90;;;;;;;12.83;62.20;98531.23;105205;1256;96591;-79
2023/05/15 04:21:48;;;;;;;17.80;6.90;;;;;;;12.83;62.20;98533.02;105235;1257;110278;-79
2023/05/15 04:24:16;;;;;;;17.80;7.70;;;;;;;12.84;62.17;98531.50;105196;1257;96586;-81
2023/05/15 04:26:46;;;;;;;15.70;6.90;;;;;;;12.83;62.30;98529.77;105260;1257;106978;-81
2023/05/15 04:29:14;;;;;;;12.40;6.50;;;;;;;12.83;62.41;98533.05;105240;1255;97810;-80
2023/05/15 04:31:42;;;;;;;16.30;8.00;;;;;;;12.84;62.43;98531.52;105205;1257;96603;-78
2023/05/15 04:34:10;;;;;;;14.20;7.00;;;;;;;12.85;62.42;98527.89;105228;1251;110805;-78
2023/05/15 04:36:38;;;;;;;18.30;7.40;;;;;;;12.86;62.40;98523.85;105198;1251;96495;-79
2023/05/15 04:39:10;;;;;;;16.30;7.10;;;;;;;12.84;62.52;98518.71;105199;1257;108815;-79
2023/05/15 04:41:37;;;;;;;15.90;7.30;;;;;;;12.81;62.55;98511.00;105224;1258;96687;-80
2023/05/15 04:44:05;;;;;;;19.40;8.70;;;;;;;12.79;62.67;98503.83;105251;1258;96679;-82
2023/05/15 04:46:33;;;;;;;21.70;7.80;;;;;;;12.77;62.74;98501.86;105193;1257;108769;-82
2023/05/15 04:49:02;;;;;;;15.60;7.90;;;;;;;12.75;62.79;98496.73;105329;1263;96603;-81
2023/05/15 04:51:30;;;;;;;17.10;8.00;;;;;;;12.72;62.82;98492.72;105271;1257;108924;-80
2023/05/15 04:53:58;;;;;;;15.60;7.80;;;;;;;12.70;62.98;98495.36;105205;1257;97819;-80
2023/05/15 04:56:26;;;;;;;17.60;7.80;;;;;;;12.69;62.90;98502.80;105229;1257;96540;-80
2023/05/15 04:58:53;;;;;;;20.40;8.90;;;;;;;12.67;63.08;98497.27;105204;1258;110053;-80
2023/05/15 05:01:22;;;;;;;16.70;8.50;;;;;;;12.69;63.14;98494.44;105288;1257;96631;-83
2023/05/15 05:03:50;;;;;;;18.70;8.30;;;;;;;12.68;63.12;98489.52;105203;1256;108855;-81
2023/05/15 05:06:18;;;;;;;17.30;7.80;;;;;;;12.69;63.27;98492.33;105159;1267;96589;-79
2023/05/15 05:08:46;;;;;;;17.50;8.20;;;;;;;12.67;63.25;98484.62;105202;1257;96615;-79
2023/05/15 05:11:14;;;;;;;17.90;9.10;;;;;;;12.68;63.29;98478.16;105224;1257;109190;-82
2023/05/15 05:13:58;;;;;;;20.80;10.60;;;;;;;12.66;63.46;98474.38;105405;1256;96524;-86
2023/05/15 05:16:32;;;;;;;19.70;9.60;;;;;;;12.65;63.59;98473.75;105387;1257;107627;-87
2023/05/15 05:19:06;;;;;;;18.50;8.60;;;;;;;12.64;63.61;98468.56;105378;1251;96671;-88
2023/05/15 05:21:37;;;;;;;16.70;7.70;;;;;;;12.62;63.69;98464.06;105236;1257;96691;-84
2023/05/15 05:24:11;;;;;;;15.00;7.50;;;;;;;12.61;63.75;98463.65;105516;1251;110009;-86
2023/05/15 05:26:53;;;;;;;16.70;8.00;;;;;;;12.59;63.80;98455.98;105463;1256;96615;-86
2023/05/15 05:29:21;;;;;;;16.70;7.70;;;;;;;12.58;63.82;98456.46;105213;1257;107708;-86
2023/05/15 05:32:00;;;;;;;16.30;8.30;;;;;;;12.55;63.81;98454.77;105160;1254;96613;-86
2023/05/15 05:34:38;;;;;;;18.30;7.40;;;;;;;12.53;63.74;98450.33;105746;1257;97792;-86
2023/05/15 05:37:12;;;;;;;17.60;7.30;;;;;;;12.50;63.93;98453.73;105372;1256;109927;-86
2023/05/15 05:39:43;;;;;;;16.20;7.50;;;;;;;12.49;64.05;98446.36;105318;1256;97131;-86
2023/05/15 05:42:23;;;;;;;17.50;7.20;;;;;;;12.48;64.33;98446.34;105347;1254;106868;-88
2023/05/15 05:45:00;;;;;;;15.80;7.40;;;;;;;12.45;64.16;98453.02;105233;1253;97861;-86
2023/05/15 05:47:28;;;;;;;18.10;8.10;;;;;;;12.42;64.10;98458.55;105320;1254;97401;-86
2023/05/15 05:50:04;;;;;;;15.80;6.90;;;;;;;12.44;64.18;98455.26;101263;1256;5412146;-87
2023/05/15 05:52:40;;;;;;;18.10;8.20;;;;;;;12.45;64.21;98448.41;105057;1254;107136;-90
2023/05/15 05:55:09;;;;;;;18.60;8.10;;;;;;;12.46;64.32;98447.43;105243;1256;96751;-86
2023/05/15 05:57:37;;;;;;;18.80;9.00;;;;;;;12.47;64.35;98449.05;105241;1256;96604;-87
2023/05/15 06:00:13;;;;;;;19.60;8.10;;;;;;;12.50;64.37;98458.38;105301;1254;109647;-87
2023/05/15 06:03:00;;;;;;;17.00;7.90;;;;;;;12.54;64.55;98456.08;105208;1256;96543;-86
2023/05/15 06:05:37;;;;;;;17.60;8.10;;;;;;;12.59;64.68;98462.27;105222;1256;107704;-86
2023/05/15 06:08:11;;;;;;;18.40;7.80;;;;;;;12.63;64.65;98464.45;105187;1256;96583;-86
2023/05/15 06:10:44;;;;;;;14.90;7.10;;;;;;;12.72;64.67;98462.70;105304;1256;96579;-86
2023/05/15 06:13:23;;;;;;;15.10;7.30;;;;;;;12.77;64.79;98459.19;105441;1253;109917;-85
2023/05/15 06:15:57;;;;;;;18.40;7.30;;;;;;;12.84;64.73;98458.90;105318;1253;96510;-87
2023/05/15 06:18:26;;;;;;;16.50;7.70;;;;;;;12.91;64.90;98459.87;105281;1256;107645;-86
2023/05/15 06:20:53;;;;;;;13.60;7.10;;;;;;;12.97;64.79;98458.09;105521;1256;97286;-87
2023/05/15 06:23:21;;;;;;;14.60;6.50;;;;;;;13.01;64.85;98454.15;105480;1253;96533;-86
2023/05/15 06:25:56;;;;;;;13.70;6.90;;;;;;;13.04;64.87;98452.10;105436;1254;110560;-87
2023/05/15 06:28:27;;;;;;;13.40;6.10;;;;;;;13.05;64.91;98446.29;105358;1254;97858;-87
2023/05/15 06:30:59;;;;;;;13.60;6.70;;;;;;;13.07;64.89;98439.00;105415;1256;107601;-85
2023/05/15 06:33:38;;;;;;;15.40;6.80;;;;;;;13.09;64.93;98436.28;105308;1256;97512;-85
2023/05/15 06:36:15;;;;;;;16.00;6.80;;;;;;;13.14;65.06;98444.56;105301;1256;96680;-85
2023/05/15 06:38:43;;;;;;;16.40;7.70;;;;;;;13.19;65.19;98434.89;105243;1260;109475;-90
2023/05/15 06:41:14;;;;;;;13.90;6.70;;;;;;;13.23;65.29;98435.86;105587;1257;96530;-88
2023/05/15 06:43:53;;;;;;;14.60;6.60;;;;;;;13.26;65.29;98436.16;105332;1266;105667;-87
2023/05/15 06:46:21;;;;;;;14.90;7.00;;;;;;;13.26;65.12;98433.32;105410;1251;96818;-87
2023/05/15 06:48:55;;;;;;;14.60;6.70;;;;;;;13.26;65.23;98426.56;105431;1257;96571;-87
2023/05/15 06:51:23;;;;;;;19.50;7.60;;;;;;;13.25;65.31;98420.78;105536;1254;109139;-86
2023/05/15 06:53:56;;;;;;;17.60;7.90;;;;;;;13.23;65.43;98415.77;105530;1255;96545;-85
2023/05/15 06:56:24;;;;;;;16.00;7.50;;;;;;;13.23;65.44;98411.13;105349;1265;106513;-87
2023/05/15 06:58:52;;;;;;;16.00;7.70;;;;;;;13.28;65.45;98400.76;105353;1257;96603;-86
2023/05/15 07:01:25;;;;;;;15.90;7.40;;;;;;;13.36;65.56;98390.86;105461;1257;96527;-85
2023/05/15 07:03:58;;;;;;;16.50;7.60;;;;;;;13.45;65.55;98391.38;105339;1253;109940;-86
2023/05/15 07:06:31;;;;;;;13.40;6.90;;;;;;;13.50;65.59;98387.45;105439;1256;97835;-86
2023/05/15 07:08:59;;;;;;;17.00;8.00;;;;;;;13.48;65.48;98388.77;105282;1267;109302;-87
2023/05/15 07:11:28;;;;;;;14.60;7.40;;;;;;;13.44;65.55;98388.04;105271;1256;97143;-89
2023/05/15 07:13:56;;;;;;;16.30;7.90;;;;;;;13.41;65.53;98399.70;105360;1257;96573;-87
2023/05/15 07:16:37;;;;;;;19.90;8.30;;;;;;;13.35;65.69;98410.04;105393;1254;109384;-86
2023/05/15 07:19:17;;;;;;;17.80;7.00;;;;;;;13.31;65.63;98409.38;105420;1254;96578;-87
2023/05/15 07:21:48;;;;;;;14.80;7.80;;;;;;;13.26;65.73;98401.43;105391;1257;106895;-85
2023/05/15 07:24:21;;;;;;;13.70;6.70;;;;;;;13.25;65.74;98398.68;105412;1263;97801;-86
2023/05/15 07:26:56;;;;;;;15.70;7.30;;;;;;;13.27;65.99;98396.39;105388;1256;97528;-88
2023/05/15 07:29:29;;;;;;;16.30;7.40;;;;;;;13.25;65.86;98392.61;105326;1256;109963;-86
2023/05/15 07:31:57;;;;;;;17.40;8.70;;;;;;;13.25;65.98;98391.95;105235;1256;97828;-88
2023/05/15 07:34:25;;;;;;;16.90;8.80;;;;;;;13.21;65.89;98389.33;105332;1256;107242;-86
2023/05/15 07:36:58;;;;;;;20.30;8.20;;;;;;;13.18;65.95;98389.19;105345;1251;97236;-86
2023/05/15 07:39:29;;;;;;;21.10;8.10;;;;;;;13.19;66.16;98387.02;105459;1267;96676;-91
2023/05/15 07:42:05;;;;;;;19.90;8.90;;;;;;;13.24;66.11;98389.55;105392;1254;109488;-88
2023/05/15 07:44:39;;;;;;;20.90;8.60;;;;;;;13.28;66.20;98385.23;105456;1254;96679;-86
2023/05/15 07:47:14;;;;;;;19.40;9.60;;;;;;;13.29;66.06;98381.61;105390;1254;107145;-86
2023/05/15 07:49:42;;;;;;;;;;;;;;;13.27;66.28;98378.17;105319;1251;97531;-87
2023/05/15 07:52:15;;;;;;;19.90;9.00;;;;;;;13.22;66.37;98374.19;105438;1251;96595;-87
2023/05/15 07:54:50;;;;;;;17.90;9.00;;;;;;;13.22;66.32;98371.24;105454;1254;109654;-87
2023/05/15 07:57:22;;;;;;;17.90;8.90;;;;;;;13.25;66.50;98372.48;105428;1251;97514;-86
2023/05/15 07:59:50;;;;;;;17.40;9.50;;;;;;;13.28;66.39;98376.71;105350;1273;107661;-87
2023/05/15 08:02:28;;;;;;;18.00;8.50;;;;;;;13.30;66.58;98377.05;105370;1253;97056;-89
2023/05/15 08:05:01;;;;;;;19.10;8.40;;;;;;;13.32;66.42;98374.89;105346;1253;96624;-88
2023/05/15 08:07:32;;;;;;;17.30;8.10;;;;;;;13.31;66.51;98376.60;105288;1257;109925;-87
2023/05/15 08:10:00;;;;;;;17.00;8.30;;;;;;;13.32;66.56;98374.15;105366;1256;97398;-86
2023/05/15 08:12:28;;;;;;;17.70;8.10;;;;;;;13.38;66.57;98379.08;105248;1256;105719;-87
2023/05/15 08:15:06;;;;;;;18.40;8.30;;;;;;;13.41;66.59;98381.20;105369;1254;96666;-87
2023/05/15 08:17:35;;;;;;;17.30;8.00;;;;;;;13.39;66.63;98381.88;105377;1254;96523;-89
2023/05/15 08:20:14;;;;;;;16.60;7.90;;;;;;;13.36;66.80;98378.31;105419;1256;109969;-87
2023/05/15 08:22:47;;;;;;;17.50;8.20;;;;;;;13.33;66.75;98374.45;105425;1251;96661;-88
2023/05/15 08:25:15;;;;;;;;;;;;;;;13.36;66.92;98374.30;105441;1264;107557;-87
2023/05/15 08:27:43;;;;;;;15.10;7.90;;;;;;;13.42;66.98;98376.14;105249;1252;97548;-87
2023/05/15 08:30:25;;;;;;;18.00;8.60;;;;;;;13.52;67.00;98375.51;105510;1256;96506;-87
2023/05/15 08:33:04;;;;;;;18.50;9.40;;;;;;;13.69;67.14;98374.24;105384;1254;109929;-87
2023/05/15 08:35:35;;;;;;;18.20;8.30;;;;;;;13.94;67.09;98370.25;105266;1251;96525;-87
2023/05/15 08:38:03;;;;;;;16.20;8.70;;;;;;;14.20;67.19;98366.13;105502;1254;106134;-86
2023/05/15 08:40:32;;;;;;;16.40;7.80;;;;;;;14.47;67.13;98370.83;105366;1254;96693;-88
2023/05/15 08:43:17;;;;;;;16.80;8.10;;;;;;;14.59;67.17;98368.34;105319;1256;97890;-90
2023/05/15 08:45:55;;;;;;;18.30;9.00;;;;;;;14.68;67.29;98361.05;105296;1256;109975;-86
2023/05/15 08:48:33;;;;;;;17.70;8.40;;;;;;;14.76;67.22;98345.02;105367;1257;97426;-86
2023/05/15 08:51:14;;;;;;;20.00;8.20;;;;;;;14.89;67.38;98339.29;105402;1257;107082;-87
2023/05/15 08:53:42;;;;;;;17.60;8.30;;;;;;;14.98;67.24;98337.44;105428;1254;96606;-86
2023/05/15 08:56:14;;;;;;;20.20;8.70;;;;;;;15.03;67.07;98337.17;105456;1250;96504;-86
2023/05/15 08:58:45;;;;;;;18.70;8.30;;;;;;;15.03;67.05;98346.98;105396;1251;109581;-87
2023/05/15 09:01:17;;;;;;;19.00;8.70;;;;;;;14.97;66.96;98350.30;105439;1250;96712;-87
2023/05/15 09:03:53;;;;;;;16.30;8.70;;;;;;;14.94;67.04;98357.54;105368;1254;107663;-86
2023/05/15 09:06:30;;;;;;;17.60;8.80;;;;;;;15.01;67.24;98367.38;105430;1254;96749;-86
2023/05/15 09:09:00;;;;;;;16.70;8.50;;;;;;;15.11;67.40;98361.80;105376;1251;96519;-87
2023/05/15 09:11:30;;;;;;;17.20;8.90;;;;;;;15.23;67.38;98366.89;105365;1254;110676;-89
2023/05/15 09:14:02;;;;;;;17.70;7.90;;;;;;;15.35;67.36;98374.79;105392;1251;96583;-89
2023/05/15 09:16:30;;;;;;;20.10;8.70;;;;;;;15.44;67.37;98379.36;105468;1254;107247;-87
2023/05/15 09:19:07;;;;;;;16.80;8.90;;;;;;;15.48;67.41;98379.34;105426;1251;97527;-86
2023/05/15 09:21:42;;;;;;;16.90;8.40;;;;;;;15.45;67.26;98381.64;105471;1253;97397;-89
2023/05/15 09:24:25;;;;;;;16.80;8.90;;;;;;;15.42;67.27;98379.06;105417;1265;109384;-86
2023/05/15 09:27:22;;;;;;;17.50;8.70;;;;;;;15.43;67.36;98361.49;105425;1268;96671;-87
2023/05/15 09:30:06;;;;;;;14.40;6.60;;;;;;;15.51;67.31;98351.91;105442;1254;107644;-88
2023/05/15 09:32:38;;;;;;;13.00;6.40;;;;;;;15.68;67.58;98356.46;105349;1253;96604;-86
2023/05/15 09:35:27;;;;;;;13.90;5.90;;;;;;;15.98;67.59;98359.48;105477;1254;96572;-86
2023/05/15 09:38:00;;;;;;;12.70;5.50;;;;;;;16.22;67.46;98358.69;105271;1254;109503;-86
2023/05/15 09:40:35;;;;;;;14.20;6.20;;;;;;;16.28;67.38;98365.94;105336;1253;96501;-85
2023/05/15 09:43:14;;;;;;;17.20;6.80;;;;;;;16.25;67.30;98360.17;105270;1251;107094;-86
2023/05/15 09:45:50;;;;;;;11.60;6.00;;;;;;;16.22;67.18;98357.84;105330;1255;96695;-86
2023/05/15 09:48:21;;;;;;;11.80;5.70;;;;;;;16.15;67.28;98361.85;105385;1256;96578;-86
2023/05/15 09:50:52;;;;;;;11.90;5.90;;;;;;;16.11;67.19;98371.20;105281;1252;109923;-84
2023/05/15 09:53:21;;;;;;;14.60;6.20;;;;;;;16.09;67.21;98377.30;105592;1251;96558;-85
2023/05/15 09:55:57;;;;;;;10.60;6.40;;;;;;;16.00;67.26;98381.44;105305;1256;107661;-86
2023/05/15 09:58:28;;;;;;;15.20;6.30;;;;;;;15.96;67.33;98386.48;105602;1256;97819;-86
2023/05/15 10:01:01;;;;;;;14.20;5.80;;;;;;;15.92;67.21;98388.92;105804;1255;96517;-86
2023/05/15 10:03:32;;;;;;;15.10;6.40;;;;;;;15.83;67.29;98386.26;105777;1253;107783;-86
2023/05/15 10:06:03;;;;;;;14.10;6.20;;;;;;;15.75;67.24;98380.63;105873;1256;98008;-87
2023/05/15 10:08:33;;;;;;;13.80;6.50;;;;;;;15.71;67.33;98365.15;105816;1256;108763;-86
2023/05/15 10:11:05;;;;;;;14.30;6.10;;;;;;;15.72;67.47;98371.42;105654;1251;96678;-87
2023/05/15 10:13:36;;;;;;;12.50;5.90;;;;;;;15.77;67.40;98362.83;105528;1251;96594;-86
2023/05/15 10:16:05;;;;;;;11.20;5.90;;;;;;;15.84;67.44;98368.21;105362;1250;109683;-85
2023/05/15 10:18:36;;;;;;;12.60;5.90;;;;;;;15.90;67.50;98372.85;105363;1254;97799;-85
2023/05/15 10:21:08;;;;;;;13.10;5.70;;;;;;;15.99;67.62;98371.58;105320;1254;107723;-86
2023/05/15 10:23:42;;;;;;;14.10;6.40;;;;;;;16.07;67.74;98369.65;105363;1251;96690;-86
2023/05/15 10:26:21;;;;;;;12.60;5.70;;;;;;;16.19;67.71;98362.07;105411;1254;96561;-85
2023/05/15 10:28:56;;;;;;;13.50;6.20;;;;;;;16.26;67.66;98363.73;105384;1254;109879;-86
2023/05/15 10:31:28;;;;;;;11.80;5.60;;;;;;;16.27;67.64;98360.04;105301;1254;97513;-86
2023/05/15 10:34:01;;;;;;;12.60;5.70;;;;;;;16.29;67.82;98361.95;105257;1256;107292;-84
2023/05/15 10:36:37;;;;;;;15.50;6.40;;;;;;;16.30;67.74;98371.35;105384;1252;96565;-84
2023/05/15 10:39:06;;;;;;;15.10;6.10;;;;;;;16.30;67.85;98372.88;105399;1256;97821;-83
2023/05/15 10:41:37;;;;;;;13.70;6.10;;;;;;;16.32;67.81;98373.41;105361;1251;109917;-84
2023/05/15 10:44:05;;;;;;;15.40;4.80;;;;;;;16.39;67.82;98363.16;105419;1251;98007;-84
2023/05/15 10:46:35;;;;;;;8.30;4.40;;;;;;;16.63;67.98;98366.08;105392;1256;107670;-84
2023/05/15 10:49:04;;;;;;;11.30;4.70;;;;;;;16.93;67.99;98365.77;105448;1251;97510;-84
2023/05/15 10:51:36;;;;;;;11.90;4.40;;;;;;;17.10;67.64;98369.13;105399;1251;96606;-84
2023/05/15 10:54:07;;;;;;;12.30;4.50;;;;;;;17.33;68.05;98371.77;105352;1256;109424;-84
2023/05/15 10:56:41;;;;;;;8.20;3.70;;;;;;;17.63;68.20;98378.45;105331;1257;96686;-84
2023/05/15 10:59:10;;;;;;;12.00;4.30;;;;;;;17.97;67.76;98378.95;105450;1256;108064;-84
2023/05/15 11:01:40;;;;;;;15.40;4.20;;;;;;;18.13;67.66;98376.23;105412;1257;96612;-84
2023/05/15 11:04:13;;;;;;;10.70;3.90;;;;;;;18.30;67.50;98375.84;105372;1256;97411;-84
2023/05/15 11:06:44;;;;;;;8.30;3.50;;;;;;;18.37;67.39;98378.25;105391;1252;109939;-84
2023/05/15 11:09:39;;;;;;;7.90;3.40;;;;;;;18.37;67.14;98378.31;105432;1251;96741;-84
2023/05/15 11:12:12;;;;;;;7.30;3.00;;;;;;;18.30;67.16;98376.92;105410;1251;107120;-84
2023/05/15 11:15:03;;;;;;;9.50;3.60;;;;;;;18.11;66.87;98378.42;105427;1269;97711;-84
2023/05/15 11:17:35;;;;;;;7.80;3.60;;;;;;;17.83;66.90;98381.57;105350;1256;97522;-83
2023/05/15 11:20:04;;;;;;;10.80;3.90;;;;;;;17.69;67.13;98395.01;105406;1253;108576;-84
2023/05/15 11:22:37;;;;;;;6.70;3.10;;;;;;;17.54;66.98;98408.60;105341;1256;97438;-84
2023/05/15 11:25:08;;;;;;;6.90;3.20;;;;;;;17.33;66.97;98408.30;105400;1266;106509;-84
2023/05/15 11:27:44;;;;;;;10.40;3.80;;;;;;;17.11;66.73;98410.55;105416;1255;96585;-83
2023/05/15 11:30:21;;;;;;;10.20;3.80;;;;;;;17.02;67.09;98413.91;105267;1257;96666;-85
2023/05/15 11:32:56;;;;;;;9.00;3.50;;;;;;;16.94;67.01;98414.08;105241;1256;111162;-84
2023/05/15 11:35:37;;;;;;;8.00;3.80;;;;;;;16.93;67.19;98412.44;105338;1251;96661;-85
2023/05/15 11:38:13;;;;;;;13.90;4.50;;;;;;;16.95;67.13;98411.00;105248;1256;108888;-85